sensor_id;sensor_type;location;lat;lon;timestamp;pressure;altitude;pressure_sealevel;temperature;humidity
4617;BME280;2321;42.704;23.384;2023-02-21T00:00:34;95850.91;;;5.73;nan
4617;BME280;2321;42.704;23.384;2023-02-21T00:03:18;95857.38;;;5.60;nan
4617;BME280;2321;42.704;23.384;2023-02-21T00:06:03;95860.31;;;5.57;nan
4617;BME280;2321;42.704;23.384;2023-02-21T00:08:47;95851.84;;;5.53;nan
4617;BME280;2321;42.704;23.384;2023-02-21T00:11:32;95859.25;;;5.50;nan
4617;BME280;2321;42.704;23.384;2023-02-21T00:14:16;95865.13;;;5.43;nan
4617;BME280;2321;42.704;23.384;2023-02-21T00:17:02;95865.31;;;5.32;nan
4617;BME280;2321;42.704;23.384;2023-02-21T00:19:46;95850.06;;;5.26;nan
4617;BME280;2321;42.704;23.384;2023-02-21T00:22:30;95868.06;;;5.12;nan
4617;BME280;2321;42.704;23.384;2023-02-21T00:25:15;95856.44;;;5.05;nan
4617;BME280;2321;42.704;23.384;2023-02-21T00:27:59;95870.84;;;5.10;nan
4617;BME280;2321;42.704;23.384;2023-02-21T00:30:44;95846.16;;;5.01;nan
4617;BME280;2321;42.704;23.384;2023-02-21T00:33:30;95850.31;;;5.04;nan
4617;BME280;2321;42.704;23.384;2023-02-21T00:36:15;95847.28;;;4.99;nan
4617;BME280;2321;42.704;23.384;2023-02-21T00:38:59;95849.78;;;5.00;nan
4617;BME280;2321;42.704;23.384;2023-02-21T00:41:43;95847.97;;;5.01;nan
4617;BME280;2321;42.704;23.384;2023-02-21T00:44:28;95849.19;;;5.07;nan
4617;BME280;2321;42.704;23.384;2023-02-21T00:47:12;95839.47;;;5.07;nan
4617;BME280;2321;42.704;23.384;2023-02-21T00:49:58;95840.66;;;4.85;nan
4617;BME280;2321;42.704;23.384;2023-02-21T00:52:42;95834.13;;;4.89;nan
4617;BME280;2321;42.704;23.384;2023-02-21T00:55:26;95830.53;;;4.90;nan
4617;BME280;2321;42.704;23.384;2023-02-21T00:58:11;95819.56;;;4.85;nan
4617;BME280;2321;42.704;23.384;2023-02-21T01:00:56;95818.00;;;4.92;nan
4617;BME280;2321;42.704;23.384;2023-02-21T01:03:40;95813.41;;;4.94;nan
4617;BME280;2321;42.704;23.384;2023-02-21T01:06:26;95798.94;;;4.98;nan
4617;BME280;2321;42.704;23.384;2023-02-21T01:09:10;95799.19;;;5.05;nan
4617;BME280;2321;42.704;23.384;2023-02-21T01:11:55;95791.13;;;5.07;nan
4617;BME280;2321;42.704;23.384;2023-02-21T01:14:39;95793.91;;;5.05;nan
4617;BME280;2321;42.704;23.384;2023-02-21T01:17:24;95785.41;;;5.11;nan
4617;BME280;2321;42.704;23.384;2023-02-21T01:20:09;95784.59;;;5.29;nan
4617;BME280;2321;42.704;23.384;2023-02-21T01:22:54;95789.03;;;5.29;nan
4617;BME280;2321;42.704;23.384;2023-02-21T01:25:38;95781.50;;;5.34;nan
4617;BME280;2321;42.704;23.384;2023-02-21T01:28:23;95776.16;;;5.44;nan
4617;BME280;2321;42.704;23.384;2023-02-21T01:31:07;95722.13;;;5.20;nan
4617;BME280;2321;42.704;23.384;2023-02-21T01:33:52;95765.28;;;5.47;nan
4617;BME280;2321;42.704;23.384;2023-02-21T01:36:39;95769.38;;;5.60;nan
4617;BME280;2321;42.704;23.384;2023-02-21T01:39:25;95770.13;;;5.52;nan
4617;BME280;2321;42.704;23.384;2023-02-21T01:42:09;95755.41;;;5.49;nan
4617;BME280;2321;42.704;23.384;2023-02-21T01:48:23;95771.31;;;5.21;nan
4617;BME280;2321;42.704;23.384;2023-02-21T01:51:09;95757.97;;;5.22;nan
4617;BME280;2321;42.704;23.384;2023-02-21T01:53:55;95765.22;;;5.20;nan
4617;BME280;2321;42.704;23.384;2023-02-21T01:56:42;95753.22;;;5.26;nan
4617;BME280;2321;42.704;23.384;2023-02-21T01:59:26;95749.44;;;5.10;nan
4617;BME280;2321;42.704;23.384;2023-02-21T02:02:16;95750.56;;;5.08;nan
4617;BME280;2321;42.704;23.384;2023-02-21T02:05:02;95740.00;;;5.08;nan
4617;BME280;2321;42.704;23.384;2023-02-21T02:07:47;95738.75;;;5.12;nan
4617;BME280;2321;42.704;23.384;2023-02-21T02:10:32;95742.47;;;5.09;nan
4617;BME280;2321;42.704;23.384;2023-02-21T02:13:30;95740.31;;;5.05;nan
4617;BME280;2321;42.704;23.384;2023-02-21T02:16:03;95728.06;;;5.04;nan
4617;BME280;2321;42.704;23.384;2023-02-21T02:18:55;95718.94;;;4.98;nan
4617;BME280;2321;42.704;23.384;2023-02-21T02:21:56;95719.31;;;5.03;nan
4617;BME280;2321;42.704;23.384;2023-02-21T02:27:43;95731.84;;;5.01;nan
4617;BME280;2321;42.704;23.384;2023-02-21T02:33:50;95719.78;;;5.17;nan
4617;BME280;2321;42.704;23.384;2023-02-21T02:36:24;95718.81;;;5.18;nan
4617;BME280;2321;42.704;23.384;2023-02-21T02:38:59;95724.31;;;5.25;nan
4617;BME280;2321;42.704;23.384;2023-02-21T02:41:37;95717.47;;;5.14;nan
4617;BME280;2321;42.704;23.384;2023-02-21T02:44:13;95718.44;;;5.12;nan
4617;BME280;2321;42.704;23.384;2023-02-21T02:46:42;95713.38;;;5.19;nan
4617;BME280;2321;42.704;23.384;2023-02-21T02:49:14;95700.72;;;5.23;nan
4617;BME280;2321;42.704;23.384;2023-02-21T02:51:46;95707.19;;;5.29;nan
4617;BME280;2321;42.704;23.384;2023-02-21T02:54:13;95704.41;;;5.30;nan
4617;BME280;2321;42.704;23.384;2023-02-21T02:56:40;95719.97;;;5.33;nan
4617;BME280;2321;42.704;23.384;2023-02-21T02:59:09;95711.22;;;5.33;nan
4617;BME280;2321;42.704;23.384;2023-02-21T03:01:53;95705.31;;;5.39;nan
4617;BME280;2321;42.704;23.384;2023-02-21T03:04:45;95708.16;;;5.28;nan
4617;BME280;2321;42.704;23.384;2023-02-21T03:07:26;95708.72;;;5.31;nan
4617;BME280;2321;42.704;23.384;2023-02-21T03:10:01;95706.00;;;5.41;nan
4617;BME280;2321;42.704;23.384;2023-02-21T03:12:34;95713.63;;;5.26;nan
4617;BME280;2321;42.704;23.384;2023-02-21T03:15:06;95710.44;;;5.22;nan
4617;BME280;2321;42.704;23.384;2023-02-21T03:17:37;95706.97;;;5.22;nan
4617;BME280;2321;42.704;23.384;2023-02-21T03:20:07;95704.56;;;5.29;nan
4617;BME280;2321;42.704;23.384;2023-02-21T03:22:37;95709.84;;;5.29;nan
4617;BME280;2321;42.704;23.384;2023-02-21T03:25:04;95708.16;;;5.28;nan
4617;BME280;2321;42.704;23.384;2023-02-21T03:27:32;95700.13;;;5.29;nan
4617;BME280;2321;42.704;23.384;2023-02-21T03:30:03;95698.69;;;5.35;nan
4617;BME280;2321;42.704;23.384;2023-02-21T03:32:33;95698.75;;;5.25;nan
4617;BME280;2321;42.704;23.384;2023-02-21T03:34:59;95695.44;;;5.23;nan
4617;BME280;2321;42.704;23.384;2023-02-21T03:37:31;95697.41;;;5.21;nan
4617;BME280;2321;42.704;23.384;2023-02-21T03:40:02;95702.53;;;5.22;nan
4617;BME280;2321;42.704;23.384;2023-02-21T03:42:29;95707.25;;;5.19;nan
4617;BME280;2321;42.704;23.384;2023-02-21T03:44:56;95703.66;;;5.20;nan
4617;BME280;2321;42.704;23.384;2023-02-21T03:47:23;95703.00;;;5.18;nan
4617;BME280;2321;42.704;23.384;2023-02-21T03:49:50;95711.03;;;5.16;nan
4617;BME280;2321;42.704;23.384;2023-02-21T03:52:16;95705.38;;;5.11;nan
4617;BME280;2321;42.704;23.384;2023-02-21T03:54:43;95712.53;;;5.19;nan
4617;BME280;2321;42.704;23.384;2023-02-21T03:57:12;95708.78;;;5.21;nan
4617;BME280;2321;42.704;23.384;2023-02-21T03:59:39;95714.69;;;5.15;nan
4617;BME280;2321;42.704;23.384;2023-02-21T04:02:06;95724.31;;;5.25;nan
4617;BME280;2321;42.704;23.384;2023-02-21T04:04:33;95725.25;;;5.15;nan
4617;BME280;2321;42.704;23.384;2023-02-21T04:07:00;95719.03;;;5.25;nan
4617;BME280;2321;42.704;23.384;2023-02-21T04:09:27;95719.56;;;5.28;nan
4617;BME280;2321;42.704;23.384;2023-02-21T04:11:54;95723.03;;;5.29;nan
4617;BME280;2321;42.704;23.384;2023-02-21T04:14:23;95721.84;;;5.23;nan
4617;BME280;2321;42.704;23.384;2023-02-21T04:16:50;95718.81;;;5.18;nan
4617;BME280;2321;42.704;23.384;2023-02-21T04:19:17;95715.28;;;5.09;nan
4617;BME280;2321;42.704;23.384;2023-02-21T04:21:44;95722.78;;;5.04;nan
4617;BME280;2321;42.704;23.384;2023-02-21T04:24:11;95724.75;;;5.01;nan
4617;BME280;2321;42.704;23.384;2023-02-21T04:26:37;95733.66;;;5.00;nan
4617;BME280;2321;42.704;23.384;2023-02-21T04:29:06;95744.50;;;4.97;nan
4617;BME280;2321;42.704;23.384;2023-02-21T04:31:34;95741.19;;;4.95;nan
4617;BME280;2321;42.704;23.384;2023-02-21T04:34:01;95738.72;;;4.94;nan
4617;BME280;2321;42.704;23.384;2023-02-21T04:36:28;95739.38;;;4.96;nan
4617;BME280;2321;42.704;23.384;2023-02-21T04:38:55;95740.66;;;4.92;nan
4617;BME280;2321;42.704;23.384;2023-02-21T04:41:22;95741.25;;;4.85;nan
4617;BME280;2321;42.704;23.384;2023-02-21T04:43:49;95740.09;;;4.88;nan
4617;BME280;2321;42.704;23.384;2023-02-21T04:46:18;95731.22;;;4.89;nan
4617;BME280;2321;42.704;23.384;2023-02-21T04:48:48;95735.59;;;4.80;nan
4617;BME280;2321;42.704;23.384;2023-02-21T04:51:17;95722.00;;;4.75;nan
4617;BME280;2321;42.704;23.384;2023-02-21T04:53:46;95718.78;;;4.81;nan
4617;BME280;2321;42.704;23.384;2023-02-21T04:56:14;95717.25;;;4.78;nan
4617;BME280;2321;42.704;23.384;2023-02-21T04:58:41;95716.31;;;4.69;nan
4617;BME280;2321;42.704;23.384;2023-02-21T05:01:09;95708.72;;;4.66;nan
4617;BME280;2321;42.704;23.384;2023-02-21T05:03:37;95715.06;;;4.74;nan
4617;BME280;2321;42.704;23.384;2023-02-21T05:06:06;95716.72;;;4.75;nan
4617;BME280;2321;42.704;23.384;2023-02-21T05:08:33;95719.38;;;4.75;nan
4617;BME280;2321;42.704;23.384;2023-02-21T05:11:00;95714.09;;;4.75;nan
4617;BME280;2321;42.704;23.384;2023-02-21T05:13:27;95710.25;;;4.69;nan
4617;BME280;2321;42.704;23.384;2023-02-21T05:15:54;95718.59;;;4.64;nan
4617;BME280;2321;42.704;23.384;2023-02-21T05:18:21;95711.41;;;4.56;nan
4617;BME280;2321;42.704;23.384;2023-02-21T05:20:53;95707.97;;;4.46;nan
4617;BME280;2321;42.704;23.384;2023-02-21T05:23:22;95708.16;;;4.44;nan
4617;BME280;2321;42.704;23.384;2023-02-21T05:25:59;95710.06;;;4.42;nan
4617;BME280;2321;42.704;23.384;2023-02-21T05:28:26;95708.94;;;4.45;nan
4617;BME280;2321;42.704;23.384;2023-02-21T05:30:54;95709.31;;;4.32;nan
4617;BME280;2321;42.704;23.384;2023-02-21T05:33:24;95716.94;;;4.25;nan
4617;BME280;2321;42.704;23.384;2023-02-21T05:35:51;95709.72;;;4.27;nan
4617;BME280;2321;42.704;23.384;2023-02-21T05:38:20;95708.78;;;4.18;nan
4617;BME280;2321;42.704;23.384;2023-02-21T05:40:49;95714.06;;;4.08;nan
4617;BME280;2321;42.704;23.384;2023-02-21T05:43:16;95713.78;;;4.11;nan
4617;BME280;2321;42.704;23.384;2023-02-21T05:45:43;95714.72;;;4.20;nan
4617;BME280;2321;42.704;23.384;2023-02-21T05:48:10;95718.19;;;4.31;nan
4617;BME280;2321;42.704;23.384;2023-02-21T05:50:37;95720.34;;;4.45;nan
4617;BME280;2321;42.704;23.384;2023-02-21T05:53:06;95717.66;;;4.55;nan
4617;BME280;2321;42.704;23.384;2023-02-21T05:55:35;95723.56;;;4.67;nan
4617;BME280;2321;42.704;23.384;2023-02-21T05:58:06;95730.22;;;4.72;nan
4617;BME280;2321;42.704;23.384;2023-02-21T06:00:32;95731.56;;;4.76;nan
4617;BME280;2321;42.704;23.384;2023-02-21T06:02:59;95742.25;;;4.84;nan
4617;BME280;2321;42.704;23.384;2023-02-21T06:05:26;95743.44;;;4.90;nan
4617;BME280;2321;42.704;23.384;2023-02-21T06:07:53;95740.56;;;4.83;nan
4617;BME280;2321;42.704;23.384;2023-02-21T06:10:20;95736.06;;;4.94;nan
4617;BME280;2321;42.704;23.384;2023-02-21T06:12:47;95737.28;;;4.99;nan
4617;BME280;2321;42.704;23.384;2023-02-21T06:15:16;95744.38;;;5.17;nan
4617;BME280;2321;42.704;23.384;2023-02-21T06:17:42;95739.47;;;5.22;nan
4617;BME280;2321;42.704;23.384;2023-02-21T06:20:11;95735.72;;;5.25;nan
4617;BME280;2321;42.704;23.384;2023-02-21T06:22:39;95739.66;;;5.39;nan
4617;BME280;2321;42.704;23.384;2023-02-21T06:25:07;95734.66;;;5.54;nan
4617;BME280;2321;42.704;23.384;2023-02-21T06:27:34;95739.22;;;5.71;nan
4617;BME280;2321;42.704;23.384;2023-02-21T06:30:02;95740.50;;;5.85;nan
4617;BME280;2321;42.704;23.384;2023-02-21T06:32:30;95735.16;;;5.95;nan
4617;BME280;2321;42.704;23.384;2023-02-21T06:34:57;95736.25;;;6.10;nan
4617;BME280;2321;42.704;23.384;2023-02-21T06:37:24;95738.16;;;6.27;nan
4617;BME280;2321;42.704;23.384;2023-02-21T06:39:51;95745.88;;;6.47;nan
4617;BME280;2321;42.704;23.384;2023-02-21T06:42:18;95755.69;;;6.63;nan
4617;BME280;2321;42.704;23.384;2023-02-21T06:44:47;95760.75;;;6.74;nan
4617;BME280;2321;42.704;23.384;2023-02-21T06:47:14;95763.44;;;6.91;nan
4617;BME280;2321;42.704;23.384;2023-02-21T06:49:43;95762.50;;;7.09;nan
4617;BME280;2321;42.704;23.384;2023-02-21T06:52:10;95752.28;;;7.23;nan
4617;BME280;2321;42.704;23.384;2023-02-21T06:54:37;95762.41;;;7.36;nan
4617;BME280;2321;42.704;23.384;2023-02-21T06:57:04;95755.78;;;7.48;nan
4617;BME280;2321;42.704;23.384;2023-02-21T06:59:31;95755.13;;;7.55;nan
4617;BME280;2321;42.704;23.384;2023-02-21T07:01:58;95755.31;;;7.61;nan
4617;BME280;2321;42.704;23.384;2023-02-21T07:04:25;95752.50;;;7.71;nan
4617;BME280;2321;42.704;23.384;2023-02-21T07:06:53;95752.50;;;7.80;nan
4617;BME280;2321;42.704;23.384;2023-02-21T07:09:20;95764.28;;;7.94;nan
4617;BME280;2321;42.704;23.384;2023-02-21T07:11:47;95760.25;;;8.06;nan
4617;BME280;2321;42.704;23.384;2023-02-21T07:14:14;95758.47;;;8.15;nan
4617;BME280;2321;42.704;23.384;2023-02-21T07:16:41;95759.41;;;8.31;nan
4617;BME280;2321;42.704;23.384;2023-02-21T07:19:08;95747.44;;;8.44;nan
4617;BME280;2321;42.704;23.384;2023-02-21T07:21:34;95755.41;;;8.52;nan
4617;BME280;2321;42.704;23.384;2023-02-21T07:24:03;95745.94;;;8.58;nan
4617;BME280;2321;42.704;23.384;2023-02-21T07:26:30;95746.06;;;8.73;nan
4617;BME280;2321;42.704;23.384;2023-02-21T07:28:57;95742.72;;;8.79;nan
4617;BME280;2321;42.704;23.384;2023-02-21T07:31:24;95738.56;;;8.85;nan
4617;BME280;2321;42.704;23.384;2023-02-21T07:33:51;95739.50;;;8.92;nan
4617;BME280;2321;42.704;23.384;2023-02-21T07:36:18;95739.34;;;8.94;nan
4617;BME280;2321;42.704;23.384;2023-02-21T07:38:45;95738.78;;;9.07;nan
4617;BME280;2321;42.704;23.384;2023-02-21T07:41:14;95737.41;;;9.20;nan
4617;BME280;2321;42.704;23.384;2023-02-21T07:43:41;95728.41;;;9.21;nan
4617;BME280;2321;42.704;23.384;2023-02-21T07:46:09;95719.09;;;9.25;nan
4617;BME280;2321;42.704;23.384;2023-02-21T07:48:36;95716.66;;;9.39;nan
4617;BME280;2321;42.704;23.384;2023-02-21T07:51:04;95703.84;;;9.42;nan
4617;BME280;2321;42.704;23.384;2023-02-21T07:53:32;95714.84;;;9.63;nan
4617;BME280;2321;42.704;23.384;2023-02-21T07:55:59;95710.75;;;9.75;nan
4617;BME280;2321;42.704;23.384;2023-02-21T07:58:27;95709.31;;;9.88;nan
4617;BME280;2321;42.704;23.384;2023-02-21T08:00:54;95718.78;;;9.90;nan
4617;BME280;2321;42.704;23.384;2023-02-21T08:03:21;95717.13;;;9.89;nan
4617;BME280;2321;42.704;23.384;2023-02-21T08:05:48;95713.53;;;9.97;nan
4617;BME280;2321;42.704;23.384;2023-02-21T08:08:15;95706.50;;;10.05;nan
4617;BME280;2321;42.704;23.384;2023-02-21T08:10:42;95702.19;;;10.03;nan
4617;BME280;2321;42.704;23.384;2023-02-21T08:13:09;95703.13;;;10.11;nan
4617;BME280;2321;42.704;23.384;2023-02-21T08:15:37;95702.56;;;10.16;nan
4617;BME280;2321;42.704;23.384;2023-02-21T08:18:04;95704.03;;;10.18;nan
4617;BME280;2321;42.704;23.384;2023-02-21T08:20:31;95686.91;;;10.21;nan
4617;BME280;2321;42.704;23.384;2023-02-21T08:22:59;95698.66;;;10.27;nan
4617;BME280;2321;42.704;23.384;2023-02-21T08:25:26;95695.06;;;10.34;nan
4617;BME280;2321;42.704;23.384;2023-02-21T08:27:53;95694.31;;;10.41;nan
4617;BME280;2321;42.704;23.384;2023-02-21T08:30:20;95697.38;;;10.53;nan
4617;BME280;2321;42.704;23.384;2023-02-21T08:32:48;95693.97;;;10.59;nan
4617;BME280;2321;42.704;23.384;2023-02-21T08:35:16;95685.88;;;10.67;nan
4617;BME280;2321;42.704;23.384;2023-02-21T08:37:44;95693.13;;;10.74;nan
4617;BME280;2321;42.704;23.384;2023-02-21T08:40:11;95686.06;;;10.81;nan
4617;BME280;2321;42.704;23.384;2023-02-21T08:42:39;95689.06;;;10.93;nan
4617;BME280;2321;42.704;23.384;2023-02-21T08:45:06;95683.63;;;11.02;nan
4617;BME280;2321;42.704;23.384;2023-02-21T08:47:35;95683.53;;;11.10;nan
4617;BME280;2321;42.704;23.384;2023-02-21T08:50:04;95676.16;;;11.12;nan
4617;BME280;2321;42.704;23.384;2023-02-21T08:52:31;95679.16;;;11.24;nan
4617;BME280;2321;42.704;23.384;2023-02-21T08:54:58;95680.09;;;11.38;nan
4617;BME280;2321;42.704;23.384;2023-02-21T08:57:25;95669.94;;;11.49;nan
4617;BME280;2321;42.704;23.384;2023-02-21T08:59:52;95670.44;;;11.59;nan
4617;BME280;2321;42.704;23.384;2023-02-21T09:02:21;95668.91;;;11.72;nan
4617;BME280;2321;42.704;23.384;2023-02-21T09:04:50;95671.47;;;11.87;nan
4617;BME280;2321;42.704;23.384;2023-02-21T09:07:20;95667.66;;;11.96;nan
4617;BME280;2321;42.704;23.384;2023-02-21T09:09:47;95664.22;;;12.03;nan
4617;BME280;2321;42.704;23.384;2023-02-21T09:12:14;95662.19;;;12.05;nan
4617;BME280;2321;42.704;23.384;2023-02-21T09:14:42;95647.38;;;12.02;nan
4617;BME280;2321;42.704;23.384;2023-02-21T09:17:11;95659.84;;;12.17;nan
4617;BME280;2321;42.704;23.384;2023-02-21T09:19:39;95657.44;;;12.29;nan
4617;BME280;2321;42.704;23.384;2023-02-21T09:22:06;95652.53;;;12.39;nan
4617;BME280;2321;42.704;23.384;2023-02-21T09:24:35;95655.91;;;12.55;nan
4617;BME280;2321;42.704;23.384;2023-02-21T09:27:03;95644.06;;;12.71;nan
4617;BME280;2321;42.704;23.384;2023-02-21T09:29:31;95652.34;;;12.83;nan
4617;BME280;2321;42.704;23.384;2023-02-21T09:31:59;95646.63;;;12.93;nan
4617;BME280;2321;42.704;23.384;2023-02-21T09:34:27;95647.06;;;13.11;nan
4617;BME280;2321;42.704;23.384;2023-02-21T09:36:54;95642.16;;;13.28;nan
4617;BME280;2321;42.704;23.384;2023-02-21T09:39:21;95642.19;;;13.48;nan
4617;BME280;2321;42.704;23.384;2023-02-21T09:41:50;95630.28;;;13.65;nan
4617;BME280;2321;42.704;23.384;2023-02-21T09:44:23;95622.44;;;13.83;nan
4617;BME280;2321;42.704;23.384;2023-02-21T09:46:54;95613.81;;;13.88;nan
4617;BME280;2321;42.704;23.384;2023-02-21T09:49:24;95621.41;;;14.05;nan
4617;BME280;2321;42.704;23.384;2023-02-21T09:51:52;95623.63;;;14.22;nan
4617;BME280;2321;42.704;23.384;2023-02-21T09:54:24;95622.16;;;14.33;nan
4617;BME280;2321;42.704;23.384;2023-02-21T09:56:55;95618.22;;;14.42;nan
4617;BME280;2321;42.704;23.384;2023-02-21T09:59:24;95611.56;;;14.58;nan
4617;BME280;2321;42.704;23.384;2023-02-21T10:01:58;95617.06;;;14.77;nan
4617;BME280;2321;42.704;23.384;2023-02-21T10:04:34;95617.22;;;14.96;nan
4617;BME280;2321;42.704;23.384;2023-02-21T10:07:09;95609.94;;;15.03;nan
4617;BME280;2321;42.704;23.384;2023-02-21T10:09:43;95602.25;;;15.14;nan
4617;BME280;2321;42.704;23.384;2023-02-21T10:12:22;95600.53;;;15.27;nan
4617;BME280;2321;42.704;23.384;2023-02-21T10:15:04;95592.34;;;15.40;nan
4617;BME280;2321;42.704;23.384;2023-02-21T10:17:41;95584.03;;;15.49;nan
4617;BME280;2321;42.704;23.384;2023-02-21T10:20:13;95578.47;;;15.50;nan
4617;BME280;2321;42.704;23.384;2023-02-21T10:22:43;95581.41;;;15.67;nan
4617;BME280;2321;42.704;23.384;2023-02-21T10:25:20;95566.59;;;15.84;nan
4617;BME280;2321;42.704;23.384;2023-02-21T10:27:50;95569.38;;;15.96;nan
4617;BME280;2321;42.704;23.384;2023-02-21T10:30:25;95565.19;;;16.07;nan
4617;BME280;2321;42.704;23.384;2023-02-21T10:32:53;95565.41;;;16.24;nan
4617;BME280;2321;42.704;23.384;2023-02-21T10:35:20;95555.31;;;16.38;nan
4617;BME280;2321;42.704;23.384;2023-02-21T10:37:50;95549.41;;;16.48;nan
4617;BME280;2321;42.704;23.384;2023-02-21T10:40:26;95548.03;;;16.58;nan
4617;BME280;2321;42.704;23.384;2023-02-21T10:43:01;95535.84;;;16.74;nan
4617;BME280;2321;42.704;23.384;2023-02-21T10:45:34;95527.81;;;16.86;nan
4617;BME280;2321;42.704;23.384;2023-02-21T10:48:05;95526.56;;;17.01;nan
4617;BME280;2321;42.704;23.384;2023-02-21T10:50:38;95526.22;;;17.09;nan
4617;BME280;2321;42.704;23.384;2023-02-21T10:53:06;95522.03;;;17.13;nan
4617;BME280;2321;42.704;23.384;2023-02-21T10:55:33;95514.69;;;17.20;nan
4617;BME280;2321;42.704;23.384;2023-02-21T10:58:08;95517.91;;;17.41;nan
4617;BME280;2321;42.704;23.384;2023-02-21T11:00:37;95512.84;;;17.57;nan
4617;BME280;2321;42.704;23.384;2023-02-21T11:03:06;95501.97;;;17.64;nan
4617;BME280;2321;42.704;23.384;2023-02-21T11:05:38;95505.94;;;17.73;nan
4617;BME280;2321;42.704;23.384;2023-02-21T11:08:07;95507.00;;;17.84;nan
4617;BME280;2321;42.704;23.384;2023-02-21T11:10:35;95508.03;;;17.83;nan
4617;BME280;2321;42.704;23.384;2023-02-21T11:13:13;95498.78;;;17.91;nan
4617;BME280;2321;42.704;23.384;2023-02-21T11:15:40;95483.41;;;18.04;nan
4617;BME280;2321;42.704;23.384;2023-02-21T11:18:16;95480.94;;;18.14;nan
4617;BME280;2321;42.704;23.384;2023-02-21T11:20:44;95467.34;;;18.21;nan
4617;BME280;2321;42.704;23.384;2023-02-21T11:23:23;95471.63;;;18.34;nan
4617;BME280;2321;42.704;23.384;2023-02-21T11:25:57;95472.06;;;18.43;nan
4617;BME280;2321;42.704;23.384;2023-02-21T11:28:26;95466.53;;;18.50;nan
4617;BME280;2321;42.704;23.384;2023-02-21T11:31:12;95463.69;;;18.57;nan
4617;BME280;2321;42.704;23.384;2023-02-21T11:33:41;95457.25;;;18.58;nan
4617;BME280;2321;42.704;23.384;2023-02-21T11:36:12;95450.31;;;18.62;nan
4617;BME280;2321;42.704;23.384;2023-02-21T11:38:42;95434.47;;;18.66;nan
4617;BME280;2321;42.704;23.384;2023-02-21T11:41:21;95457.06;;;18.94;nan
4617;BME280;2321;42.704;23.384;2023-02-21T11:43:50;95446.09;;;18.83;nan
4617;BME280;2321;42.704;23.384;2023-02-21T11:46:23;95437.91;;;18.78;nan
4617;BME280;2321;42.704;23.384;2023-02-21T11:48:59;95438.81;;;18.84;nan
4617;BME280;2321;42.704;23.384;2023-02-21T11:51:38;95427.44;;;18.99;nan
4617;BME280;2321;42.704;23.384;2023-02-21T11:54:07;95422.31;;;19.15;nan
4617;BME280;2321;42.704;23.384;2023-02-21T11:56:48;95417.56;;;19.05;nan
4617;BME280;2321;42.704;23.384;2023-02-21T11:59:25;95409.56;;;18.93;nan
4617;BME280;2321;42.704;23.384;2023-02-21T12:02:13;95413.97;;;18.99;nan
4617;BME280;2321;42.704;23.384;2023-02-21T12:05:01;95391.88;;;19.02;nan
4617;BME280;2321;42.704;23.384;2023-02-21T12:07:38;95387.00;;;18.99;nan
4617;BME280;2321;42.704;23.384;2023-02-21T12:10:27;95387.16;;;19.10;nan
4617;BME280;2321;42.704;23.384;2023-02-21T12:12:59;95386.66;;;19.13;nan
4617;BME280;2321;42.704;23.384;2023-02-21T12:15:36;95375.66;;;19.20;nan
4617;BME280;2321;42.704;23.384;2023-02-21T12:18:25;95370.78;;;19.16;nan
4617;BME280;2321;42.704;23.384;2023-02-21T12:21:12;95372.78;;;19.21;nan
4617;BME280;2321;42.704;23.384;2023-02-21T12:23:51;95372.00;;;19.26;nan
4617;BME280;2321;42.704;23.384;2023-02-21T12:26:33;95360.91;;;19.05;nan
4617;BME280;2321;42.704;23.384;2023-02-21T12:29:14;95362.09;;;18.92;nan
4617;BME280;2321;42.704;23.384;2023-02-21T12:31:58;95347.94;;;18.84;nan
4617;BME280;2321;42.704;23.384;2023-02-21T12:34:37;95336.66;;;18.88;nan
4617;BME280;2321;42.704;23.384;2023-02-21T12:37:19;95341.88;;;18.94;nan
4617;BME280;2321;42.704;23.384;2023-02-21T12:40:06;95347.50;;;19.10;nan
4617;BME280;2321;42.704;23.384;2023-02-21T12:42:48;95349.75;;;19.19;nan
4617;BME280;2321;42.704;23.384;2023-02-21T12:45:35;95339.06;;;19.24;nan
4617;BME280;2321;42.704;23.384;2023-02-21T12:48:14;95339.72;;;19.31;nan
4617;BME280;2321;42.704;23.384;2023-02-21T12:50:47;95331.03;;;19.29;nan
4617;BME280;2321;42.704;23.384;2023-02-21T12:53:16;95331.84;;;19.30;nan
4617;BME280;2321;42.704;23.384;2023-02-21T12:55:46;95333.50;;;19.31;nan
4617;BME280;2321;42.704;23.384;2023-02-21T12:58:18;95325.63;;;19.29;nan
4617;BME280;2321;42.704;23.384;2023-02-21T13:00:51;95304.25;;;19.22;nan
4617;BME280;2321;42.704;23.384;2023-02-21T13:03:33;95331.00;;;19.46;nan
4617;BME280;2321;42.704;23.384;2023-02-21T13:06:05;95329.84;;;19.42;nan
4617;BME280;2321;42.704;23.384;2023-02-21T13:08:44;95332.88;;;19.46;nan
4617;BME280;2321;42.704;23.384;2023-02-21T13:11:15;95325.09;;;19.49;nan
4617;BME280;2321;42.704;23.384;2023-02-21T13:13:44;95320.31;;;19.57;nan
4617;BME280;2321;42.704;23.384;2023-02-21T13:16:12;95308.56;;;19.68;nan
4617;BME280;2321;42.704;23.384;2023-02-21T13:18:43;95315.72;;;19.80;nan
4617;BME280;2321;42.704;23.384;2023-02-21T13:21:20;95321.97;;;19.86;nan
4617;BME280;2321;42.704;23.384;2023-02-21T13:23:53;95313.09;;;19.90;nan
4617;BME280;2321;42.704;23.384;2023-02-21T13:26:35;95318.78;;;19.89;nan
4617;BME280;2321;42.704;23.384;2023-02-21T13:29:13;95310.63;;;19.84;nan
4617;BME280;2321;42.704;23.384;2023-02-21T13:31:43;95307.34;;;19.81;nan
4617;BME280;2321;42.704;23.384;2023-02-21T13:34:17;95304.63;;;19.81;nan
4617;BME280;2321;42.704;23.384;2023-02-21T13:36:46;95304.72;;;19.87;nan
4617;BME280;2321;42.704;23.384;2023-02-21T13:39:15;95301.16;;;19.81;nan
4617;BME280;2321;42.704;23.384;2023-02-21T13:41:45;95295.78;;;19.86;nan
4617;BME280;2321;42.704;23.384;2023-02-21T13:44:18;95301.50;;;19.90;nan
4617;BME280;2321;42.704;23.384;2023-02-21T13:47:09;95291.94;;;19.82;nan
4617;BME280;2321;42.704;23.384;2023-02-21T13:49:50;95287.84;;;19.74;nan
4617;BME280;2321;42.704;23.384;2023-02-21T13:52:52;95294.84;;;19.75;nan
4617;BME280;2321;42.704;23.384;2023-02-21T13:55:26;95288.44;;;19.81;nan
4617;BME280;2321;42.704;23.384;2023-02-21T14:01:40;95276.84;;;19.81;nan
4617;BME280;2321;42.704;23.384;2023-02-21T14:07:49;95287.19;;;19.89;nan
4617;BME280;2321;42.704;23.384;2023-02-21T14:10:40;95281.16;;;19.82;nan
4617;BME280;2321;42.704;23.384;2023-02-21T14:13:19;95277.91;;;19.80;nan
4617;BME280;2321;42.704;23.384;2023-02-21T14:15:50;95281.97;;;19.83;nan
4617;BME280;2321;42.704;23.384;2023-02-21T14:18:25;95280.28;;;19.76;nan
4617;BME280;2321;42.704;23.384;2023-02-21T14:20:55;95279.41;;;19.70;nan
4617;BME280;2321;42.704;23.384;2023-02-21T14:23:31;95279.56;;;19.58;nan
4617;BME280;2321;42.704;23.384;2023-02-21T14:26:02;95268.91;;;19.46;nan
4617;BME280;2321;42.704;23.384;2023-02-21T14:28:58;95271.34;;;19.48;nan